EGQK

RAF Kinloss Airport

Kinloss, United Kingdom
METAR EGQK 201450Z AUTO 26008KT 9999 BKN060/// 07/04 Q1026 RERA
Observed Flight Rules
Feb-20 @ 14:50 UTC (23 hours ago) Visual Flight Rules
Wind Visibility Clouds
260° at 8 knots 10,000+ meters
  • Broken at 6,000' AGL
Temperatures Readings
Current 7°C / 45°F
Dewpoint 4°C / 39°F
Humidity 81%
Altimeter 30.3" Hg
Pressure 1026 hPa
Elevation 7
METAR EGQK 201450Z AUTO 26008KT 9999 BKN060/// 07/04 Q1026 RERA
Observed Flight Rules
Feb-20 @ 14:50 UTC
(23 hours ago)
VFR
Wind Visibility
260° at 8 knots 10,000+ meters
Clouds
  • Broken at 6,000' AGL
Temperature Dewpoint
7°C / 45°F 4°C / 39°F
Humidity Altimeter Pressure
81% 30.3" Hg 1026 hPa